createdAt,value
2019-04-04T00:00:51.116Z,52.20
2019-04-04T00:03:39.776Z,41.88
2019-04-04T00:06:29.046Z,39.98
2019-04-04T00:09:18.512Z,38.95
2019-04-04T00:12:08.064Z,39.78
2019-04-04T00:14:58.391Z,39.95
2019-04-04T00:17:47.806Z,32.98
2019-04-04T00:20:37.230Z,39.60
2019-04-04T00:23:26.027Z,28.87
2019-04-04T00:26:15.359Z,27.90
2019-04-04T00:29:04.490Z,26.87
2019-04-04T00:31:53.702Z,35.83
2019-04-04T00:34:42.367Z,25.90
2019-04-04T00:37:31.463Z,22.40
2019-04-04T00:40:20.684Z,25.20
2019-04-04T00:43:09.993Z,24.10
2019-04-04T00:46:00.755Z,30.85
2019-04-04T00:48:49.938Z,24.72
2019-04-04T00:51:39.662Z,28.73
2019-04-04T00:54:29.186Z,30.20
2019-04-04T00:57:18.863Z,26.42
2019-04-04T01:00:09.784Z,24.90
2019-04-04T01:02:58.971Z,21.93
2019-04-04T01:05:47.893Z,30.08
2019-04-04T01:08:38.860Z,25.55
2019-04-04T01:11:27.065Z,21.73
2019-04-04T01:14:16.404Z,25.15
2019-04-04T01:17:05.913Z,20.40
2019-04-04T01:19:55.274Z,18.23
2019-04-04T01:22:44.110Z,20.43
2019-04-04T01:25:33.500Z,28.57
2019-04-04T01:28:23.158Z,20.82
2019-04-04T01:31:14.618Z,25.65
2019-04-04T01:34:03.053Z,21.70
2019-04-04T01:36:56.161Z,21.10
2019-04-04T01:39:43.284Z,20.50
2019-04-04T01:42:32.142Z,20.62
2019-04-04T01:45:21.670Z,19.02
2019-04-04T01:48:10.754Z,17.02
2019-04-04T01:51:00.310Z,17.67
2019-04-04T01:53:49.980Z,23.10
2019-04-04T01:56:39.565Z,19.23
2019-04-04T01:59:28.583Z,19.42
2019-04-04T02:02:18.617Z,18.82
2019-04-04T02:05:08.802Z,21.70
2019-04-04T02:08:00.554Z,18.82
2019-04-04T02:10:47.956Z,20.65
2019-04-04T02:13:36.890Z,18.98
2019-04-04T02:16:26.103Z,19.73
2019-04-04T02:19:15.200Z,18.45
2019-04-04T02:22:05.199Z,20.45
2019-04-04T02:24:54.927Z,23.52
2019-04-04T02:27:43.873Z,21.45
2019-04-04T02:30:33.258Z,20.32
2019-04-04T02:33:21.838Z,21.12
2019-04-04T02:36:16.246Z,23.15
2019-04-04T02:39:12.528Z,20.37
2019-04-04T02:42:01.901Z,22.90
2019-04-04T02:44:51.373Z,23.35
2019-04-04T02:47:40.447Z,23.70
2019-04-04T02:50:34.408Z,31.62
2019-04-04T02:53:20.635Z,29.35
2019-04-04T02:56:10.404Z,24.25
2019-04-04T02:58:59.456Z,26.15
2019-04-04T03:01:48.849Z,28.62
2019-04-04T03:04:37.707Z,29.77
2019-04-04T03:07:29.843Z,24.92
2019-04-04T03:10:18.525Z,26.77
2019-04-04T03:13:07.567Z,24.18
2019-04-04T03:15:56.933Z,23.75
2019-04-04T03:18:45.698Z,25.95
2019-04-04T03:21:35.051Z,29.98
2019-04-04T03:24:24.035Z,28.93
2019-04-04T03:27:12.680Z,27.10
2019-04-04T03:30:01.721Z,36.65
2019-04-04T03:32:54.557Z,26.70
2019-04-04T03:35:42.007Z,29.45
2019-04-04T03:38:31.037Z,30.90
2019-04-04T03:41:20.557Z,30.05
2019-04-04T03:44:09.638Z,25.20
2019-04-04T03:46:58.580Z,27.77
2019-04-04T03:49:47.443Z,35.25
2019-04-04T03:52:36.507Z,26.17
2019-04-04T03:55:27.861Z,30.32
2019-04-04T03:58:17.193Z,33.42
2019-04-04T04:01:06.775Z,30.08
2019-04-04T04:03:56.193Z,28.37
2019-04-04T04:06:45.415Z,35.63
2019-04-04T04:09:34.746Z,33.85
2019-04-04T04:12:24.401Z,34.45
2019-04-04T04:15:13.408Z,29.48
2019-04-04T04:18:02.804Z,30.23
2019-04-04T04:20:52.265Z,35.95
2019-04-04T04:23:40.987Z,27.75
2019-04-04T04:26:29.897Z,29.02
2019-04-04T04:29:20.300Z,28.15
2019-04-04T04:32:09.639Z,28.30
2019-04-04T04:34:58.232Z,30.05
2019-04-04T04:37:46.971Z,26.35
2019-04-04T04:40:36.316Z,29.60
2019-04-04T04:43:25.807Z,28.85
2019-04-04T04:46:17.830Z,29.47
2019-04-04T04:49:05.503Z,28.47
2019-04-04T04:51:54.839Z,26.55
2019-04-04T04:54:44.151Z,30.37
2019-04-04T04:57:36.633Z,28.85
2019-04-04T05:00:27.411Z,31.55
2019-04-04T05:03:14.819Z,28.02
2019-04-04T05:06:03.967Z,29.80
2019-04-04T05:08:52.886Z,28.65
2019-04-04T05:11:42.287Z,28.77
2019-04-04T05:14:31.956Z,29.90
2019-04-04T05:17:21.339Z,31.20
2019-04-04T05:20:11.151Z,31.12
2019-04-04T05:23:00.601Z,30.52
2019-04-04T05:25:53.961Z,30.53
2019-04-04T05:28:42.108Z,33.05
2019-04-04T05:31:32.196Z,29.15
2019-04-04T05:34:21.085Z,31.17
2019-04-04T05:37:10.630Z,29.40
2019-04-04T05:39:59.836Z,35.20
2019-04-04T05:42:48.944Z,30.45
2019-04-04T05:45:37.630Z,38.90
2019-04-04T05:48:29.071Z,30.40
2019-04-04T05:54:07.516Z,32.40
2019-04-04T05:56:56.673Z,30.62
2019-04-04T05:59:46.000Z,34.50
2019-04-04T06:02:34.887Z,35.60
2019-04-04T06:05:26.891Z,31.82
2019-04-04T06:08:15.157Z,36.65
2019-04-04T06:11:04.293Z,35.90
2019-04-04T06:13:53.549Z,32.30
2019-04-04T06:16:42.649Z,33.75
2019-04-04T06:19:31.783Z,33.40
2019-04-04T06:22:21.190Z,32.70
2019-04-04T06:25:11.824Z,32.65
2019-04-04T06:28:01.656Z,30.97
2019-04-04T06:30:53.426Z,35.58
2019-04-04T06:33:41.239Z,37.30
2019-04-04T06:36:30.507Z,32.40
2019-04-04T06:39:19.411Z,34.90
2019-04-04T06:42:11.258Z,34.48
2019-04-04T06:44:59.516Z,33.95
2019-04-04T06:47:48.411Z,38.50
2019-04-04T06:50:39.990Z,33.78
2019-04-04T06:53:28.195Z,31.60
2019-04-04T06:56:17.538Z,25.73
2019-04-04T06:59:07.020Z,30.05
2019-04-04T07:01:56.186Z,24.80
2019-04-04T07:04:45.536Z,28.42
2019-04-04T07:07:35.448Z,25.80
2019-04-04T07:10:24.702Z,26.62
2019-04-04T07:13:21.710Z,25.60
2019-04-04T07:16:07.780Z,31.12
2019-04-04T07:18:56.066Z,23.73
2019-04-04T07:21:45.167Z,25.60
2019-04-04T07:24:34.195Z,22.70
2019-04-04T07:27:23.715Z,23.20
2019-04-04T07:33:02.971Z,24.90
2019-04-04T07:35:52.387Z,24.57
2019-04-04T07:38:42.015Z,28.27
2019-04-04T07:41:30.782Z,22.45
2019-04-04T07:44:21.156Z,21.77
2019-04-04T07:47:11.160Z,25.92
2019-04-04T07:49:59.680Z,21.97
2019-04-04T07:52:49.075Z,18.20
2019-04-04T07:55:40.133Z,16.57
2019-04-04T07:58:29.663Z,18.80
2019-04-04T08:01:18.722Z,16.70
2019-04-04T08:04:08.213Z,17.52
2019-04-04T08:06:57.789Z,21.10
2019-04-04T08:09:47.307Z,15.38
2019-04-04T08:12:36.940Z,17.02
2019-04-04T08:15:26.001Z,19.65
2019-04-04T08:18:15.475Z,19.07
2019-04-04T08:21:05.836Z,18.92
2019-04-04T08:23:55.443Z,20.43
2019-04-04T08:26:44.953Z,21.65
2019-04-04T08:29:34.303Z,20.12
2019-04-04T08:32:23.872Z,19.90
2019-04-04T08:35:13.484Z,19.70
2019-04-04T08:38:02.927Z,18.42
2019-04-04T08:40:51.979Z,18.12
2019-04-04T08:43:41.489Z,20.50
2019-04-04T08:46:30.541Z,18.42
2019-04-04T08:57:45.961Z,20.30
2019-04-04T09:00:35.009Z,20.43
2019-04-04T09:03:24.299Z,17.27
2019-04-04T09:06:12.798Z,19.35
2019-04-04T09:09:02.095Z,15.95
2019-04-04T09:11:50.954Z,20.45
2019-04-04T09:14:41.278Z,23.42
2019-04-04T09:17:30.336Z,19.82
2019-04-04T09:20:18.916Z,19.10
2019-04-04T09:23:08.369Z,19.10
2019-04-04T09:26:05.392Z,19.80
2019-04-04T09:28:49.164Z,20.68
2019-04-04T09:31:38.532Z,22.17
2019-04-04T09:34:28.012Z,19.55
2019-04-04T09:37:17.589Z,23.75
2019-04-04T09:40:08.213Z,19.05
2019-04-04T09:42:57.773Z,18.12
2019-04-04T09:45:47.016Z,27.37
2019-04-04T09:48:36.571Z,20.97
2019-04-04T09:51:25.564Z,25.35
2019-04-04T09:54:15.051Z,21.85
2019-04-04T09:57:03.587Z,21.62
2019-04-04T09:59:52.248Z,19.27
2019-04-04T10:02:42.243Z,18.95
2019-04-04T10:05:31.543Z,21.48
2019-04-04T10:08:20.469Z,20.77
2019-04-04T10:11:09.951Z,18.92
2019-04-04T10:13:59.213Z,20.30
2019-04-04T10:16:48.093Z,17.90
2019-04-04T10:19:37.137Z,24.02
2019-04-04T10:22:26.412Z,22.35
2019-04-04T10:25:15.566Z,19.48
2019-04-04T10:28:04.646Z,22.87
2019-04-04T10:30:54.233Z,16.70
2019-04-04T10:33:43.633Z,20.82
2019-04-04T10:36:32.708Z,20.75
2019-04-04T10:39:28.804Z,18.35
2019-04-04T10:42:12.469Z,16.93
2019-04-04T10:45:02.576Z,18.80
2019-04-04T10:47:51.363Z,22.02
2019-04-04T10:50:40.091Z,19.32
2019-04-04T10:53:29.385Z,20.45
2019-04-04T10:56:19.065Z,18.80
2019-04-04T10:59:08.030Z,19.62
2019-04-04T11:02:00.684Z,14.25
2019-04-04T11:04:48.415Z,18.77
2019-04-04T11:07:37.041Z,22.35
2019-04-04T11:10:26.336Z,15.68
2019-04-04T11:13:15.706Z,20.65
2019-04-04T14:21:25.457Z,20.00
2019-04-04T14:24:14.629Z,19.48
2019-04-04T14:27:03.934Z,20.00
2019-04-04T14:29:55.308Z,21.87
2019-04-04T14:32:43.644Z,21.07
2019-04-04T14:35:33.392Z,23.65
2019-04-04T14:38:22.582Z,23.50
2019-04-04T14:41:12.029Z,21.45
2019-04-04T14:44:01.261Z,19.75
2019-04-04T14:46:49.762Z,19.80
2019-04-04T14:49:39.069Z,21.40
2019-04-04T14:52:28.063Z,27.58
2019-04-04T14:55:17.973Z,27.70
2019-04-04T14:58:07.680Z,29.32
2019-04-04T15:00:56.769Z,30.62
2019-04-04T15:03:45.528Z,25.27
2019-04-04T15:06:34.378Z,30.32
2019-04-04T15:09:23.760Z,26.40
2019-04-04T15:12:13.069Z,35.28
2019-04-04T15:15:02.190Z,29.18
2019-04-04T15:17:51.122Z,25.60
2019-04-04T15:20:39.804Z,30.48
2019-04-04T15:23:28.663Z,25.32
2019-04-04T15:26:18.241Z,28.12
2019-04-04T15:29:07.167Z,24.82
2019-04-04T15:31:56.228Z,27.93
2019-04-04T15:34:45.245Z,28.12
2019-04-04T15:37:34.152Z,26.02
2019-04-04T15:40:23.361Z,31.85
2019-04-04T15:43:12.534Z,27.30
2019-04-04T15:46:01.900Z,27.52
2019-04-04T15:48:50.691Z,22.93
2019-04-04T15:51:39.616Z,24.00
2019-04-04T15:54:29.318Z,24.25
2019-04-04T15:57:18.659Z,22.32
2019-04-04T16:00:09.783Z,22.80
2019-04-04T16:02:58.466Z,28.98
2019-04-04T16:05:47.607Z,33.08
2019-04-04T16:08:36.550Z,30.60
2019-04-04T16:11:25.937Z,24.92
2019-04-04T16:14:15.102Z,34.55
2019-04-04T16:17:04.462Z,26.30
2019-04-04T16:19:54.155Z,28.80
2019-04-04T16:22:43.127Z,28.32
2019-04-04T16:25:32.597Z,30.55
2019-04-04T16:28:21.585Z,33.67
2019-04-04T16:31:10.925Z,29.15
2019-04-04T16:33:59.864Z,32.50
2019-04-04T16:36:49.360Z,35.38
2019-04-04T16:39:38.427Z,31.48
2019-04-04T16:42:27.371Z,28.15
2019-04-04T16:45:16.989Z,37.38
2019-04-04T16:48:05.759Z,25.57
2019-04-04T16:50:55.204Z,24.50
2019-04-04T16:53:44.259Z,22.05
2019-04-04T16:56:33.942Z,26.90
2019-04-04T16:59:23.212Z,25.15
2019-04-04T17:02:12.792Z,23.02
2019-04-04T17:05:01.846Z,27.98
2019-04-04T17:07:51.339Z,19.98
2019-04-04T17:10:40.469Z,33.18
2019-04-04T17:13:29.946Z,26.65
2019-04-04T17:16:21.332Z,36.83
2019-04-04T17:19:10.072Z,24.45
2019-04-04T17:21:58.731Z,23.55
2019-04-04T17:24:47.972Z,17.32
2019-04-04T17:27:39.260Z,27.70
2019-04-04T17:30:28.842Z,21.02
2019-04-04T17:33:17.629Z,33.90
2019-04-04T17:36:06.478Z,31.95
2019-04-04T17:38:56.054Z,28.80
2019-04-04T17:41:45.934Z,26.75
2019-04-04T17:44:34.498Z,21.90
2019-04-04T17:47:24.094Z,24.00
2019-04-04T17:50:18.413Z,29.85
2019-04-04T17:53:06.449Z,26.25
2019-04-04T17:55:56.291Z,21.73
2019-04-04T17:58:45.790Z,18.30
2019-04-04T18:01:35.435Z,23.85
2019-04-04T18:04:26.524Z,17.30
2019-04-04T18:07:15.402Z,38.85
2019-04-04T18:10:06.669Z,28.00
2019-04-04T18:12:55.994Z,18.02
2019-04-04T18:15:45.464Z,26.97
2019-04-04T18:18:34.409Z,23.07
2019-04-04T18:21:23.908Z,23.80
2019-04-04T18:24:13.287Z,21.05
2019-04-04T18:27:02.748Z,20.77
2019-04-04T18:29:52.094Z,21.77
2019-04-04T18:32:41.697Z,22.87
2019-04-04T18:35:30.229Z,30.20
2019-04-04T18:38:19.515Z,21.63
2019-04-04T18:41:08.480Z,36.45
2019-04-04T18:43:57.596Z,21.80
2019-04-04T18:46:47.017Z,29.55
2019-04-04T18:49:35.770Z,22.22
2019-04-04T18:52:25.347Z,22.60
2019-04-04T18:55:19.853Z,24.43
2019-04-04T18:58:04.609Z,22.48
2019-04-04T19:00:53.707Z,27.00
2019-04-04T19:03:43.555Z,24.00
2019-04-04T19:06:33.042Z,25.00
2019-04-04T19:09:22.108Z,29.75
2019-04-04T19:12:11.066Z,32.88
2019-04-04T19:14:59.952Z,32.60
2019-04-04T19:17:49.491Z,27.20
2019-04-04T19:20:38.359Z,30.40
2019-04-04T19:23:27.443Z,27.98
2019-04-04T19:26:16.346Z,43.38
2019-04-04T19:29:05.157Z,30.90
2019-04-04T19:31:54.612Z,29.77
2019-04-04T19:34:43.848Z,38.65
2019-04-04T19:37:32.644Z,24.43
2019-04-04T19:40:21.377Z,29.98
2019-04-04T19:43:17.892Z,30.48
2019-04-04T19:46:01.244Z,33.40
2019-04-04T19:48:50.545Z,32.35
2019-04-04T19:51:39.704Z,35.92
2019-04-04T19:54:29.115Z,33.08
2019-04-04T19:57:18.451Z,45.65
2019-04-04T20:00:10.068Z,37.88
2019-04-04T20:02:59.343Z,37.48
2019-04-04T20:05:48.500Z,41.55
2019-04-04T20:08:38.102Z,40.17
2019-04-04T20:11:27.215Z,42.38
2019-04-04T20:14:16.112Z,66.20
2019-04-04T20:17:05.687Z,42.33
2019-04-04T20:19:54.532Z,39.27
2019-04-04T20:22:43.514Z,37.78
2019-04-04T20:25:32.568Z,69.50
2019-04-04T20:28:21.942Z,48.63
2019-04-04T20:31:11.354Z,40.23
2019-04-04T20:34:01.918Z,49.87
2019-04-04T20:36:50.639Z,46.58
2019-04-04T20:39:40.357Z,51.23
2019-04-04T20:42:30.142Z,59.47
2019-04-04T20:45:19.259Z,50.80
2019-04-04T20:48:08.693Z,60.28
2019-04-04T20:50:58.667Z,43.08
2019-04-04T20:53:47.432Z,46.47
2019-04-04T20:56:36.674Z,69.90
2019-04-04T20:59:28.025Z,52.60
2019-04-04T21:02:16.821Z,54.65
2019-04-04T21:05:08.090Z,65.53
2019-04-04T21:07:57.247Z,64.60
2019-04-04T21:10:46.819Z,45.25
2019-04-04T21:13:36.400Z,55.03
2019-04-04T21:16:25.685Z,57.48
2019-04-04T21:19:14.943Z,66.70
2019-04-04T21:22:04.354Z,51.55
2019-04-04T21:24:53.672Z,78.45
2019-04-04T21:27:42.629Z,75.55
2019-04-04T21:30:32.123Z,47.55
2019-04-04T21:33:21.592Z,57.43
2019-04-04T21:36:11.049Z,55.17
2019-04-04T21:39:00.468Z,62.20
2019-04-04T21:41:49.903Z,57.55
2019-04-04T21:44:39.194Z,58.83
2019-04-04T21:47:28.192Z,56.18
2019-04-04T21:50:17.217Z,60.05
2019-04-04T21:53:06.446Z,54.77
2019-04-04T21:55:55.546Z,59.40
2019-04-04T21:58:44.704Z,66.15
2019-04-04T22:01:34.028Z,60.98
2019-04-04T22:04:23.566Z,66.53
2019-04-04T22:07:12.893Z,53.78
2019-04-04T22:10:02.102Z,58.55
2019-04-04T22:12:51.241Z,70.28
2019-04-04T22:15:40.946Z,60.70
2019-04-04T22:18:29.951Z,63.55
2019-04-04T22:21:18.871Z,68.07
2019-04-04T22:24:08.159Z,54.98
2019-04-04T22:26:57.032Z,46.08
2019-04-04T22:29:46.479Z,48.05
2019-04-04T22:32:35.211Z,46.65
2019-04-04T22:35:24.713Z,47.17
2019-04-04T22:38:13.616Z,65.40
2019-04-04T22:41:02.838Z,48.50
2019-04-04T22:44:02.935Z,45.07
2019-04-04T22:46:43.012Z,47.75
2019-04-04T22:49:31.877Z,47.43
2019-04-04T22:52:20.908Z,63.68
2019-04-04T22:55:10.621Z,50.52
2019-04-04T22:57:59.495Z,58.23
2019-04-04T23:00:49.484Z,57.98
2019-04-04T23:03:38.574Z,60.67
2019-04-04T23:06:27.894Z,59.08
2019-04-04T23:09:17.272Z,69.20
2019-04-04T23:12:06.558Z,67.97
2019-04-04T23:14:55.702Z,71.57
2019-04-04T23:17:45.582Z,69.62
2019-04-04T23:20:35.585Z,80.87
2019-04-04T23:23:24.520Z,74.05
2019-04-04T23:26:13.811Z,80.50
2019-04-04T23:29:03.280Z,81.87
2019-04-04T23:31:52.547Z,94.62
2019-04-04T23:34:42.025Z,89.15
2019-04-04T23:37:30.834Z,101.55
2019-04-04T23:40:20.361Z,81.63
2019-04-04T23:43:09.679Z,88.62
2019-04-04T23:45:59.415Z,88.12
2019-04-04T23:48:48.855Z,81.60
2019-04-04T23:51:38.270Z,107.27
2019-04-04T23:54:27.661Z,103.30
2019-04-04T23:57:17.158Z,93.35
